createdAt,value
2018-08-13T00:08:47.367Z,27.90
2018-08-13T00:18:51.505Z,27.85
2018-08-13T00:28:54.989Z,27.86
2018-08-13T00:38:58.048Z,27.85
2018-08-13T00:49:01.458Z,27.85
2018-08-13T00:59:05.235Z,27.81
2018-08-13T01:09:10.342Z,27.80
2018-08-13T01:19:13.535Z,27.84
2018-08-13T01:29:16.703Z,27.82
2018-08-13T01:39:19.962Z,27.83
2018-08-13T01:49:23.854Z,27.81
2018-08-13T01:59:26.929Z,27.85
2018-08-13T02:09:37.416Z,27.75
2018-08-13T02:19:40.784Z,27.80
2018-08-13T02:29:43.884Z,27.78
2018-08-13T02:39:47.646Z,27.81
2018-08-13T02:49:51.063Z,27.77
2018-08-13T02:59:54.739Z,27.79
2018-08-13T03:09:57.839Z,27.77
2018-08-13T03:20:01.902Z,27.72
2018-08-13T03:30:08.321Z,27.76
2018-08-13T03:40:13.577Z,27.78
2018-08-13T03:50:16.764Z,27.74
2018-08-13T04:00:20.238Z,27.70
2018-08-13T04:10:23.347Z,27.71
2018-08-13T04:20:27.303Z,27.72
2018-08-13T04:30:30.607Z,27.69
2018-08-13T04:40:33.704Z,27.72
2018-08-13T04:50:36.796Z,27.72
2018-08-13T05:00:40.006Z,27.68
2018-08-13T05:10:43.204Z,27.67
2018-08-13T05:20:46.311Z,27.68
2018-08-13T05:30:50.330Z,27.67
2018-08-13T05:40:53.410Z,27.65
2018-08-13T05:50:56.517Z,27.65
2018-08-13T06:00:59.738Z,27.62
2018-08-13T06:11:03.060Z,27.74
2018-08-13T06:21:06.396Z,27.15
2018-08-13T06:31:10.080Z,26.87
2018-08-13T06:41:13.325Z,26.85
2018-08-13T06:51:17.091Z,26.94
2018-08-13T07:01:20.445Z,27.08
2018-08-13T07:11:23.531Z,27.23
2018-08-13T07:21:26.614Z,27.29
2018-08-13T07:31:30.466Z,27.35
2018-08-13T07:41:33.484Z,27.65
2018-08-13T07:51:36.789Z,28.45
2018-08-13T08:01:39.902Z,28.38
2018-08-13T08:11:42.990Z,28.24
2018-08-13T08:21:46.069Z,28.23
2018-08-13T08:31:49.248Z,28.38
2018-08-13T08:41:52.358Z,28.42
2018-08-13T08:51:55.485Z,28.47
2018-08-13T09:01:58.640Z,28.50
2018-08-13T09:12:01.761Z,28.60
2018-08-13T09:22:16.404Z,28.74
2018-08-13T09:32:31.733Z,28.72
2018-08-13T09:42:34.741Z,28.96
2018-08-13T09:52:37.896Z,29.12
2018-08-13T10:02:40.986Z,29.26
2018-08-13T10:12:44.763Z,29.15
2018-08-13T10:22:48.011Z,29.20
2018-08-13T10:32:51.187Z,29.17
2018-08-13T10:42:54.561Z,29.10
2018-08-13T10:52:57.752Z,28.92
2018-08-13T11:03:01.132Z,28.88
2018-08-13T11:13:04.239Z,28.77
2018-08-13T11:23:07.337Z,29.42
2018-08-13T11:33:10.506Z,28.92
2018-08-13T11:43:13.846Z,28.77
2018-08-13T11:53:17.045Z,29.04
2018-08-13T12:03:20.108Z,28.46
2018-08-13T12:13:23.732Z,28.66
2018-08-13T12:23:26.993Z,28.40
2018-08-13T12:33:30.198Z,28.82
2018-08-13T12:43:33.354Z,28.90
2018-08-13T12:53:36.577Z,29.29
2018-08-13T13:03:40.202Z,28.91
2018-08-13T13:13:43.377Z,29.05
2018-08-13T13:23:46.461Z,29.12
2018-08-13T13:33:49.694Z,29.33
2018-08-13T13:43:52.897Z,29.19
2018-08-13T13:53:55.964Z,29.32
2018-08-13T14:03:59.149Z,28.88
2018-08-13T14:14:02.975Z,29.38
2018-08-13T14:24:06.361Z,29.26
2018-08-13T14:34:09.498Z,29.47
2018-08-13T14:44:12.799Z,29.33
2018-08-13T14:54:16.091Z,29.29
2018-08-13T15:04:19.176Z,29.07
2018-08-13T15:14:22.750Z,29.25
2018-08-13T15:24:25.828Z,29.41
2018-08-13T15:34:29.104Z,29.19
2018-08-13T15:44:32.215Z,29.07
2018-08-13T15:54:35.535Z,28.94
2018-08-13T16:04:38.713Z,29.01
2018-08-13T16:14:41.957Z,28.80
2018-08-13T16:24:45.061Z,28.89
2018-08-13T16:34:48.305Z,28.76
2018-08-13T16:44:51.457Z,28.58
2018-08-13T16:54:54.842Z,28.55
2018-08-13T17:04:58.063Z,28.61
2018-08-13T17:15:01.247Z,28.51
2018-08-13T17:25:05.274Z,28.57
2018-08-13T17:35:08.659Z,28.39
2018-08-13T17:45:11.899Z,28.38
2018-08-13T17:55:15.375Z,28.13
2018-08-13T18:05:20.822Z,28.10
2018-08-13T18:15:24.329Z,28.22
2018-08-13T18:25:27.929Z,28.32
2018-08-13T18:35:31.118Z,28.08
2018-08-13T18:45:34.294Z,28.17
2018-08-13T18:55:37.414Z,28.10
2018-08-13T19:05:40.553Z,28.26
2018-08-13T19:15:43.707Z,27.96
2018-08-13T19:25:47.523Z,28.38
2018-08-13T19:35:53.662Z,28.23
2018-08-13T19:45:59.573Z,28.28
2018-08-13T19:56:05.448Z,28.36
2018-08-13T20:06:08.482Z,28.40
2018-08-13T20:16:11.626Z,28.40
2018-08-13T20:26:15.358Z,28.43
2018-08-13T20:36:19.494Z,28.34
2018-08-13T20:46:22.768Z,28.39
2018-08-13T20:56:25.822Z,28.31
2018-08-13T21:06:29.335Z,28.30
2018-08-13T21:16:33.146Z,28.30
2018-08-13T21:26:37.054Z,28.30
2018-08-13T21:36:40.205Z,28.29
2018-08-13T21:46:43.906Z,28.34
2018-08-13T21:56:46.941Z,28.23
2018-08-13T22:06:50.053Z,28.27
2018-08-13T22:16:53.285Z,28.13
2018-08-13T22:26:56.392Z,28.23
2018-08-13T22:37:00.358Z,28.23
2018-08-13T22:47:03.537Z,28.24
2018-08-13T22:57:06.564Z,28.27
2018-08-13T23:07:10.209Z,28.29
2018-08-13T23:17:13.446Z,28.27
2018-08-13T23:27:16.978Z,28.24
2018-08-13T23:37:20.138Z,28.28
2018-08-13T23:47:23.695Z,28.29
2018-08-13T23:57:26.835Z,28.26
